Terminal Aerodrome Forecast
Issued by NWS

Home | Current Version | Previous Version | Text Only | Print | Product List | Glossary On
Versions: 1 2 3 4 5 6 7 8 9 10 11 12 13 14 15 16
000
FTUS43 KGRB 170525
TAFMTW
TAF
KMTW 170525Z 1706/1806 05009KT 5SM -SHRA BR OVC003
     FM171500 02007KT 3SM -SHRAPL BR OVC006
     FM171900 35007KT 5SM -SHSN OVC012
     FM172300 33005KT P6SM BKN020=

USA.gov is the U.S. government's official web portal to all federal, state and local government web resources and services.